createdAt,value
2019-01-29T00:00:39.884Z,-0.30
2019-01-29T00:03:06.680Z,-0.30
2019-01-29T00:05:33.127Z,-0.30
2019-01-29T00:07:59.586Z,-0.40
2019-01-29T00:10:26.272Z,-0.30
2019-01-29T00:12:52.736Z,-0.30
2019-01-29T00:15:19.436Z,-0.30
2019-01-29T00:17:46.152Z,-0.30
2019-01-29T00:20:12.597Z,-0.40
2019-01-29T00:22:39.287Z,-0.40
2019-01-29T00:25:05.993Z,-0.40
2019-01-29T00:27:32.720Z,-0.40
2019-01-29T00:29:59.419Z,-0.50
2019-01-29T00:32:25.882Z,-0.50
2019-01-29T00:34:52.574Z,-0.50
2019-01-29T00:37:19.512Z,-0.50
2019-01-29T00:39:46.449Z,-0.50
2019-01-29T00:42:13.397Z,-0.50
2019-01-29T00:44:40.541Z,-0.50
2019-01-29T00:47:07.028Z,-0.50
2019-01-29T00:49:33.736Z,-0.60
2019-01-29T00:52:00.237Z,-0.60
2019-01-29T00:54:27.275Z,-0.60
2019-01-29T00:56:53.725Z,-0.60
2019-01-29T00:59:20.668Z,-0.60
2019-01-29T01:01:48.667Z,-0.60
2019-01-29T01:04:15.131Z,-0.50
2019-01-29T01:06:41.580Z,-0.50
2019-01-29T01:09:08.311Z,-0.50
2019-01-29T01:11:35.019Z,-0.50
2019-01-29T01:14:01.484Z,-0.40
2019-01-29T01:16:28.186Z,-0.40
2019-01-29T01:18:55.105Z,-0.40
2019-01-29T01:21:21.631Z,-0.40
2019-01-29T01:23:48.348Z,-0.40
2019-01-29T01:26:15.039Z,-0.30
2019-01-29T01:28:41.993Z,-0.30
2019-01-29T01:31:08.709Z,-0.30
2019-01-29T01:33:35.432Z,-0.30
2019-01-29T01:36:02.130Z,-0.30
2019-01-29T01:38:28.844Z,-0.20
2019-01-29T01:40:55.287Z,-0.20
2019-01-29T01:43:22.000Z,-0.20
2019-01-29T01:45:48.448Z,-0.20
2019-01-29T01:48:15.159Z,-0.20
2019-01-29T01:50:42.087Z,-0.20
2019-01-29T01:53:08.800Z,-0.10
2019-01-29T01:55:35.501Z,-0.10
2019-01-29T01:58:02.200Z,-0.10
2019-01-29T02:00:28.659Z,-0.10
2019-01-29T02:02:55.143Z,-0.10
2019-01-29T02:05:21.824Z,0.00
2019-01-29T02:07:48.641Z,0.00
2019-01-29T02:10:19.064Z,0.00
2019-01-29T02:12:45.996Z,0.10
2019-01-29T02:15:12.716Z,0.00
2019-01-29T02:17:39.416Z,0.00
2019-01-29T02:20:06.531Z,0.00
2019-01-29T02:22:33.080Z,0.00
2019-01-29T02:25:00.300Z,0.00
2019-01-29T02:27:26.995Z,0.00
2019-01-29T02:29:53.463Z,-0.10
2019-01-29T02:32:20.163Z,-0.10
2019-01-29T02:34:46.883Z,-0.10
2019-01-29T02:37:13.812Z,-0.10
2019-01-29T02:39:40.547Z,-0.10
2019-01-29T02:42:07.480Z,-0.10
2019-01-29T02:44:33.951Z,-0.20
2019-01-29T02:47:00.636Z,-0.20
2019-01-29T02:49:27.347Z,-0.20
2019-01-29T02:51:53.797Z,-0.30
2019-01-29T02:54:20.523Z,-0.40
2019-01-29T02:56:47.224Z,-0.50
2019-01-29T02:59:13.691Z,-0.50
2019-01-29T03:01:40.192Z,-0.60
2019-01-29T03:04:06.659Z,-0.60
2019-01-29T03:06:33.100Z,-0.60
2019-01-29T03:08:59.565Z,-0.60
2019-01-29T03:11:26.285Z,-0.60
2019-01-29T03:13:53.000Z,-0.60
2019-01-29T03:16:19.705Z,-0.60
2019-01-29T03:18:46.425Z,-0.70
2019-01-29T03:21:13.123Z,-0.70
2019-01-29T03:23:39.836Z,-0.70
2019-01-29T03:26:06.289Z,-0.70
2019-01-29T03:28:32.858Z,-0.70
2019-01-29T03:30:59.398Z,-0.70
2019-01-29T03:33:26.334Z,-0.80
2019-01-29T03:35:53.484Z,-0.80
2019-01-29T03:38:20.203Z,-0.80
2019-01-29T03:40:46.671Z,-0.80
2019-01-29T03:43:13.119Z,-0.90
2019-01-29T03:45:39.591Z,-0.90
2019-01-29T03:48:06.284Z,-1.00
2019-01-29T03:50:32.992Z,-1.00
2019-01-29T03:52:59.680Z,-1.00
2019-01-29T03:55:26.391Z,-1.00
2019-01-29T03:57:52.843Z,-1.00
2019-01-29T04:00:20.267Z,-1.00
2019-01-29T04:02:46.731Z,-1.10
2019-01-29T04:05:13.652Z,-1.10
2019-01-29T04:07:40.104Z,-1.10
2019-01-29T04:10:07.789Z,-1.20
2019-01-29T04:12:34.485Z,-1.20
2019-01-29T04:15:00.943Z,-1.10
2019-01-29T04:17:27.405Z,-1.10
2019-01-29T04:19:54.139Z,-1.10
2019-01-29T04:22:20.816Z,-1.10
2019-01-29T04:24:48.255Z,-1.10
2019-01-29T04:27:14.983Z,-1.10
2019-01-29T04:29:41.451Z,-1.20
2019-01-29T04:32:08.167Z,-1.20
2019-01-29T04:34:34.631Z,-1.20
2019-01-29T04:37:01.427Z,-1.30
2019-01-29T04:39:28.115Z,-1.30
2019-01-29T04:41:54.777Z,-1.30
2019-01-29T04:44:21.603Z,-1.30
2019-01-29T04:46:48.052Z,-1.40
2019-01-29T04:49:14.494Z,-1.40
2019-01-29T04:51:41.209Z,-1.40
2019-01-29T04:54:07.664Z,-1.40
2019-01-29T04:56:34.127Z,-1.40
2019-01-29T04:59:01.061Z,-1.50
2019-01-29T05:01:27.776Z,-1.40
2019-01-29T05:03:54.498Z,-1.30
2019-01-29T05:06:21.208Z,-1.30
2019-01-29T05:08:47.863Z,-1.20
2019-01-29T05:11:14.892Z,-1.10
2019-01-29T05:13:41.593Z,-1.10
2019-01-29T05:16:08.312Z,-1.00
2019-01-29T05:18:34.988Z,-1.00
2019-01-29T05:21:01.931Z,-1.00
2019-01-29T05:23:28.628Z,-1.00
2019-01-29T05:25:55.091Z,-1.00
2019-01-29T05:28:21.789Z,-1.00
2019-01-29T05:30:48.932Z,-1.00
2019-01-29T05:33:15.637Z,-1.00
2019-01-29T05:35:42.091Z,-1.00
2019-01-29T05:38:08.790Z,-0.90
2019-01-29T05:40:35.262Z,-0.90
2019-01-29T05:43:01.709Z,-0.90
2019-01-29T05:45:28.176Z,-0.90
2019-01-29T05:47:54.619Z,-0.90
2019-01-29T05:50:21.121Z,-0.80
2019-01-29T05:52:47.673Z,-0.80
2019-01-29T05:55:14.228Z,-0.80
2019-01-29T05:57:40.948Z,-0.80
2019-01-29T06:00:09.301Z,-0.80
2019-01-29T06:02:36.040Z,-0.80
2019-01-29T06:05:03.005Z,-0.80
2019-01-29T06:07:29.731Z,-0.80
2019-01-29T06:09:56.663Z,-0.80
2019-01-29T06:12:23.532Z,-0.70
2019-01-29T06:14:50.236Z,-0.70
2019-01-29T06:17:16.700Z,-0.70
2019-01-29T06:19:43.151Z,-0.60
2019-01-29T06:22:09.872Z,-0.60
2019-01-29T06:24:36.578Z,-0.60
2019-01-29T06:27:03.296Z,-0.60
2019-01-29T06:29:29.995Z,-0.60
2019-01-29T06:31:56.789Z,-0.60
2019-01-29T06:34:23.237Z,-0.60
2019-01-29T06:36:50.929Z,-0.60
2019-01-29T06:39:17.560Z,-0.60
2019-01-29T06:41:44.252Z,-0.60
2019-01-29T06:44:10.719Z,-0.70
2019-01-29T06:46:37.192Z,-0.70
2019-01-29T06:49:04.041Z,-0.80
2019-01-29T06:51:30.761Z,-0.90
2019-01-29T06:53:57.203Z,-0.90
2019-01-29T06:56:23.699Z,-1.00
2019-01-29T06:58:50.218Z,-1.00
2019-01-29T07:01:16.680Z,-1.10
2019-01-29T07:03:43.128Z,-1.10
2019-01-29T07:06:09.605Z,-1.10
2019-01-29T07:08:36.057Z,-1.10
2019-01-29T07:11:02.752Z,-1.10
2019-01-29T07:13:29.226Z,-1.20
2019-01-29T07:16:03.208Z,-1.20
2019-01-29T07:18:44.991Z,-1.20
2019-01-29T07:21:11.688Z,-1.10
2019-01-29T07:23:38.152Z,-0.90
2019-01-29T07:26:05.056Z,-0.40
2019-01-29T07:28:32.004Z,0.20
2019-01-29T07:30:58.703Z,0.70
2019-01-29T07:33:25.168Z,0.90
2019-01-29T07:35:51.867Z,1.10
2019-01-29T07:38:18.562Z,1.10
2019-01-29T07:40:45.244Z,0.90
2019-01-29T07:43:11.722Z,0.50
2019-01-29T07:45:38.164Z,0.30
2019-01-29T07:48:04.924Z,0.10
2019-01-29T07:50:31.372Z,0.00
2019-01-29T07:52:57.847Z,-0.10
2019-01-29T07:55:24.548Z,-0.20
2019-01-29T07:57:51.024Z,-0.20
2019-01-29T08:00:17.464Z,-0.20
2019-01-29T08:02:43.932Z,-0.30
2019-01-29T08:05:10.864Z,-0.30
2019-01-29T08:07:37.588Z,-0.30
2019-01-29T08:10:04.299Z,-0.30
2019-01-29T08:12:31.224Z,-0.20
2019-01-29T08:14:57.928Z,0.00
2019-01-29T08:17:24.640Z,0.10
2019-01-29T08:19:51.336Z,0.50
2019-01-29T08:22:18.058Z,1.20
2019-01-29T08:24:51.792Z,2.10
2019-01-29T08:27:13.233Z,1.80
2019-01-29T08:29:39.676Z,1.50
2019-01-29T08:32:06.415Z,1.40
2019-01-29T08:34:32.864Z,1.30
2019-01-29T08:36:59.332Z,1.40
2019-01-29T08:39:26.252Z,1.40
2019-01-29T08:41:52.951Z,1.40
2019-01-29T08:44:19.700Z,1.40
2019-01-29T08:46:46.404Z,1.30
2019-01-29T08:49:13.135Z,1.30
2019-01-29T08:51:39.584Z,1.30
2019-01-29T08:54:06.292Z,1.30
2019-01-29T08:56:33.008Z,1.30
2019-01-29T08:58:59.719Z,1.20
2019-01-29T09:01:26.655Z,1.10
2019-01-29T09:03:53.369Z,1.00
2019-01-29T09:06:20.067Z,0.90
2019-01-29T09:08:46.784Z,0.90
2019-01-29T09:11:13.255Z,0.80
2019-01-29T09:13:40.562Z,0.80
2019-01-29T09:16:07.129Z,0.70
2019-01-29T09:18:33.839Z,0.70
2019-01-29T09:21:00.293Z,0.70
2019-01-29T09:23:27.118Z,0.70
2019-01-29T09:25:53.792Z,0.70
2019-01-29T09:28:20.509Z,0.70
2019-01-29T09:30:46.957Z,0.70
2019-01-29T09:33:13.675Z,0.70
2019-01-29T09:35:40.119Z,0.70
2019-01-29T09:38:07.076Z,0.70
2019-01-29T09:40:33.534Z,0.80
2019-01-29T09:43:00.097Z,0.80
2019-01-29T09:45:26.579Z,0.90
2019-01-29T09:47:53.316Z,1.00
2019-01-29T09:50:20.639Z,1.10
2019-01-29T09:52:48.239Z,1.20
2019-01-29T09:55:15.556Z,1.30
2019-01-29T09:57:42.285Z,1.30
2019-01-29T10:00:11.444Z,1.50
2019-01-29T10:02:38.176Z,1.70
2019-01-29T10:05:05.287Z,1.90
2019-01-29T10:07:31.867Z,2.30
2019-01-29T10:09:58.331Z,2.50
2019-01-29T10:12:25.028Z,2.50
2019-01-29T10:14:51.495Z,2.50
2019-01-29T10:17:18.591Z,2.40
2019-01-29T10:19:45.056Z,2.40
2019-01-29T10:22:11.771Z,2.70
2019-01-29T10:24:38.241Z,3.00
2019-01-29T10:27:04.700Z,3.40
2019-01-29T10:29:31.259Z,4.10
2019-01-29T10:31:57.940Z,5.10
2019-01-29T10:34:24.612Z,5.20
2019-01-29T10:36:51.312Z,5.20
2019-01-29T10:39:18.039Z,5.70
2019-01-29T10:41:45.195Z,6.10
2019-01-29T10:44:11.932Z,7.20
2019-01-29T10:46:38.831Z,6.30
2019-01-29T10:49:05.572Z,6.30
2019-01-29T10:51:32.272Z,5.90
2019-01-29T10:53:58.991Z,6.80
2019-01-29T10:56:25.435Z,6.80
2019-01-29T10:58:52.148Z,6.00
2019-01-29T11:01:18.848Z,5.10
2019-01-29T11:03:45.575Z,4.90
2019-01-29T11:06:12.259Z,4.90
2019-01-29T11:08:38.728Z,5.00
2019-01-29T11:11:05.428Z,5.00
2019-01-29T11:13:32.033Z,5.40
2019-01-29T11:15:58.772Z,5.50
2019-01-29T11:18:25.467Z,4.90
2019-01-29T11:20:52.184Z,4.60
2019-01-29T11:23:18.632Z,4.30
2019-01-29T11:25:45.368Z,5.50
2019-01-29T11:28:12.043Z,5.90
2019-01-29T11:30:38.519Z,7.10
2019-01-29T11:33:05.392Z,7.80
2019-01-29T11:35:32.120Z,8.00
2019-01-29T11:37:58.572Z,7.70
2019-01-29T11:40:25.786Z,7.60
2019-01-29T11:42:52.479Z,8.20
2019-01-29T11:45:23.632Z,9.50
2019-01-29T11:47:50.086Z,10.50
2019-01-29T11:50:16.811Z,11.30
2019-01-29T11:52:43.501Z,10.70
2019-01-29T11:55:10.221Z,10.80
2019-01-29T11:57:36.691Z,9.90
2019-01-29T12:00:04.124Z,10.20
2019-01-29T12:02:30.820Z,11.00
2019-01-29T12:04:57.303Z,10.80
2019-01-29T12:07:24.003Z,11.00
2019-01-29T12:09:50.724Z,11.50
2019-01-29T12:12:17.177Z,10.70
2019-01-29T12:14:43.911Z,9.90
2019-01-29T12:17:10.608Z,10.40
2019-01-29T12:19:37.344Z,10.50
2019-01-29T12:22:03.792Z,10.30
2019-01-29T12:24:30.283Z,9.10
2019-01-29T12:26:56.732Z,7.70
2019-01-29T12:29:23.220Z,6.80
2019-01-29T12:31:49.674Z,6.20
2019-01-29T12:34:16.395Z,6.10
2019-01-29T12:36:43.091Z,5.40
2019-01-29T12:39:09.807Z,5.80
2019-01-29T12:41:36.261Z,5.60
2019-01-29T12:44:02.741Z,5.20
2019-01-29T12:46:29.236Z,6.20
2019-01-29T12:48:55.684Z,7.80
2019-01-29T12:51:31.510Z,7.40
2019-01-29T12:53:57.957Z,6.50
2019-01-29T12:56:24.696Z,5.90
2019-01-29T12:58:51.145Z,5.40
2019-01-29T13:01:17.888Z,5.50
2019-01-29T13:03:44.589Z,7.00
2019-01-29T13:06:11.291Z,8.20
2019-01-29T13:08:37.988Z,8.30
2019-01-29T13:11:04.667Z,7.20
2019-01-29T13:13:31.368Z,6.80
2019-01-29T13:15:58.109Z,6.90
2019-01-29T13:18:24.810Z,6.60
2019-01-29T13:20:51.295Z,5.80
2019-01-29T13:23:17.988Z,5.60
2019-01-29T13:25:44.945Z,5.30
2019-01-29T13:28:11.638Z,5.50
2019-01-29T13:30:38.362Z,5.20
2019-01-29T13:33:05.914Z,5.40
2019-01-29T13:35:33.192Z,5.60
2019-01-29T13:37:59.912Z,5.70
2019-01-29T13:40:26.399Z,5.50
2019-01-29T13:42:53.096Z,5.20
2019-01-29T13:45:19.880Z,5.00
2019-01-29T13:47:46.325Z,4.90
2019-01-29T13:50:13.996Z,4.50
2019-01-29T13:52:40.697Z,4.10
2019-01-29T13:55:08.381Z,3.70
2019-01-29T13:57:35.081Z,3.40
2019-01-29T14:00:02.108Z,3.30
2019-01-29T14:02:28.552Z,3.10
2019-01-29T14:04:55.048Z,3.00
2019-01-29T14:07:21.744Z,2.90
2019-01-29T14:09:48.191Z,2.80
2019-01-29T14:12:15.043Z,2.60
2019-01-29T14:14:41.739Z,2.40
2019-01-29T14:17:08.467Z,2.40
2019-01-29T14:19:35.143Z,2.40
2019-01-29T14:22:01.627Z,2.40
2019-01-29T14:24:28.557Z,2.40
2019-01-29T14:26:55.058Z,2.40
2019-01-29T14:29:22.947Z,2.40
2019-01-29T14:31:49.435Z,2.40
2019-01-29T14:34:15.887Z,2.40
2019-01-29T14:36:42.615Z,2.30
2019-01-29T14:39:17.260Z,2.20
2019-01-29T14:41:44.026Z,2.20
2019-01-29T14:44:17.810Z,2.10
2019-01-29T14:46:44.548Z,2.20
2019-01-29T14:49:11.244Z,2.30
2019-01-29T14:51:38.075Z,2.40
2019-01-29T14:54:04.872Z,2.40
2019-01-29T14:56:31.466Z,2.50
2019-01-29T14:58:58.160Z,2.40
2019-01-29T15:01:24.652Z,2.40
2019-01-29T15:03:51.353Z,2.60
2019-01-29T15:06:18.097Z,2.60
2019-01-29T15:08:46.173Z,2.50
2019-01-29T15:11:13.032Z,2.30
2019-01-29T15:13:39.631Z,2.30
2019-01-29T15:16:16.952Z,2.20
2019-01-29T15:18:47.623Z,2.20
2019-01-29T15:21:14.360Z,2.10
2019-01-29T15:23:41.357Z,2.00
2019-01-29T15:26:08.092Z,2.00
2019-01-29T15:28:34.740Z,2.10
2019-01-29T15:31:01.587Z,2.10
2019-01-29T15:33:28.040Z,2.00
2019-01-29T15:35:54.731Z,1.80
2019-01-29T15:38:21.472Z,1.70
2019-01-29T15:40:48.172Z,1.50
2019-01-29T15:43:14.737Z,1.30
2019-01-29T15:45:41.442Z,1.20
2019-01-29T15:48:08.064Z,1.00
2019-01-29T15:50:34.712Z,0.90
2019-01-29T15:53:01.199Z,0.70
2019-01-29T15:55:27.877Z,0.60
2019-01-29T15:57:54.855Z,0.50
2019-01-29T16:00:22.449Z,0.40
2019-01-29T16:02:49.193Z,0.20
2019-01-29T16:05:16.672Z,0.10
2019-01-29T16:07:43.195Z,0.00
2019-01-29T16:10:10.808Z,-0.10
2019-01-29T16:12:37.296Z,-0.20
2019-01-29T16:15:04.347Z,-0.30
2019-01-29T16:17:30.839Z,-0.40
2019-01-29T16:19:57.536Z,-0.50
2019-01-29T16:22:24.031Z,-0.50
2019-01-29T16:24:50.737Z,-0.50
2019-01-29T16:27:22.573Z,-0.60
2019-01-29T16:29:46.056Z,-0.60
2019-01-29T16:32:12.806Z,-0.70
2019-01-29T16:34:39.499Z,-0.70
2019-01-29T16:37:05.988Z,-0.80
2019-01-29T16:39:32.443Z,-0.80
2019-01-29T16:41:59.225Z,-0.80
2019-01-29T16:44:25.672Z,-0.80
2019-01-29T16:46:52.159Z,-0.80
2019-01-29T16:49:18.611Z,-0.80
2019-01-29T16:51:45.521Z,-0.80
2019-01-29T16:54:12.012Z,-0.80
2019-01-29T16:56:38.792Z,-0.70
2019-01-29T16:59:05.537Z,-0.70
2019-01-29T17:01:32.328Z,-0.70
2019-01-29T17:03:59.075Z,-0.60
2019-01-29T17:06:25.774Z,-0.60
2019-01-29T17:08:52.616Z,-0.50
2019-01-29T17:11:19.063Z,-0.50
2019-01-29T17:13:45.800Z,-0.40
2019-01-29T17:16:12.247Z,-0.30
2019-01-29T17:18:38.795Z,-0.30
2019-01-29T17:21:05.483Z,-0.30
2019-01-29T17:23:31.976Z,-0.30
2019-01-29T17:25:58.424Z,-0.30
2019-01-29T17:28:25.168Z,-0.20
2019-01-29T17:30:51.864Z,-0.30
2019-01-29T17:33:18.813Z,-0.30
2019-01-29T17:35:45.860Z,-0.30
2019-01-29T17:38:12.603Z,-0.40
2019-01-29T17:40:39.057Z,-0.40
2019-01-29T17:43:05.925Z,-0.40
2019-01-29T17:45:34.052Z,-0.40
2019-01-29T17:48:00.552Z,-0.40
2019-01-29T17:50:28.099Z,-0.50
2019-01-29T17:52:54.591Z,-0.60
2019-01-29T17:55:21.287Z,-0.60
2019-01-29T17:57:50.790Z,-0.70
2019-01-29T18:00:17.480Z,-0.70
2019-01-29T18:02:44.241Z,-0.80
2019-01-29T18:05:10.932Z,-0.80
2019-01-29T18:07:37.424Z,-0.90
2019-01-29T18:10:04.771Z,-1.00
2019-01-29T18:12:31.223Z,-1.00
2019-01-29T18:14:58.195Z,-1.10
2019-01-29T18:17:25.140Z,-1.10
2019-01-29T18:19:51.640Z,-1.10
2019-01-29T18:22:18.083Z,-1.20
2019-01-29T18:24:44.884Z,-1.20
2019-01-29T18:27:11.579Z,-1.30
2019-01-29T18:29:38.071Z,-1.30
2019-01-29T18:32:04.521Z,-1.30
2019-01-29T18:34:31.268Z,-1.30
2019-01-29T18:36:57.968Z,-1.40
2019-01-29T18:39:24.464Z,-1.40
2019-01-29T18:41:51.159Z,-1.40
2019-01-29T18:44:17.700Z,-1.40
2019-01-29T18:46:44.396Z,-1.30
2019-01-29T18:49:10.892Z,-1.30
2019-01-29T18:51:37.896Z,-1.40
2019-01-29T18:54:04.668Z,-1.40
2019-01-29T18:56:31.366Z,-1.40
2019-01-29T18:58:57.864Z,-1.50
2019-01-29T19:01:24.607Z,-1.50
2019-01-29T19:03:51.092Z,-1.60
2019-01-29T19:06:17.790Z,-1.60
2019-01-29T19:08:44.279Z,-1.60
2019-01-29T19:11:10.980Z,-1.60
2019-01-29T19:13:37.736Z,-1.70
2019-01-29T19:16:04.431Z,-1.70
2019-01-29T19:18:31.407Z,-1.70
2019-01-29T19:20:57.860Z,-1.70
2019-01-29T19:23:24.602Z,-1.70
2019-01-29T19:25:52.428Z,-1.70
2019-01-29T19:28:22.172Z,-1.70
2019-01-29T19:30:47.448Z,-1.70
2019-01-29T19:33:13.904Z,-1.70
2019-01-29T19:35:40.646Z,-1.70
2019-01-29T19:38:07.093Z,-1.70
2019-01-29T19:40:33.578Z,-1.80
2019-01-29T19:43:00.324Z,-1.90
2019-01-29T19:45:28.093Z,-1.80
2019-01-29T19:47:55.080Z,-1.90
2019-01-29T19:50:22.493Z,-2.00
2019-01-29T19:52:48.945Z,-2.00
2019-01-29T19:55:15.674Z,-2.00
2019-01-29T19:57:42.129Z,-2.00
2019-01-29T20:00:11.476Z,-2.00
2019-01-29T20:02:37.927Z,-2.00
2019-01-29T20:05:04.776Z,-2.00
2019-01-29T20:07:31.480Z,-2.00
2019-01-29T20:09:58.021Z,-2.00
2019-01-29T20:12:24.716Z,-2.00
2019-01-29T20:14:51.310Z,-2.10
2019-01-29T20:17:17.860Z,-2.10
2019-01-29T20:19:44.600Z,-2.00
2019-01-29T20:22:11.397Z,-2.10
2019-01-29T20:24:37.893Z,-2.10
2019-01-29T20:27:04.588Z,-2.20
2019-01-29T20:29:31.080Z,-2.20
2019-01-29T20:31:57.530Z,-2.20
2019-01-29T20:34:24.278Z,-2.20
2019-01-29T20:36:50.724Z,-2.20
2019-01-29T20:39:17.471Z,-2.20
2019-01-29T20:41:43.920Z,-2.20
2019-01-29T20:44:10.663Z,-2.20
2019-01-29T20:46:37.152Z,-2.10
2019-01-29T20:49:03.892Z,-2.20
2019-01-29T20:51:30.383Z,-2.20
2019-01-29T20:53:57.307Z,-2.30
2019-01-29T20:56:24.251Z,-2.30
2019-01-29T20:58:52.658Z,-2.30
2019-01-29T21:01:19.094Z,-2.30
2019-01-29T21:03:46.017Z,-2.20
2019-01-29T21:06:12.992Z,-2.20
2019-01-29T21:08:39.919Z,-2.20
2019-01-29T21:11:06.668Z,-2.10
2019-01-29T21:13:33.595Z,-2.10
2019-01-29T21:16:00.344Z,-2.10
2019-01-29T21:18:26.789Z,-2.10
2019-01-29T21:20:57.184Z,-2.10
2019-01-29T21:23:21.880Z,-2.10
2019-01-29T21:25:48.368Z,-2.10
2019-01-29T21:28:15.064Z,-2.10
2019-01-29T21:30:44.009Z,-2.00
2019-01-29T21:33:11.399Z,-2.10
2019-01-29T21:35:37.893Z,-2.10
2019-01-29T21:38:04.567Z,-2.10
2019-01-29T21:40:31.052Z,-2.10
2019-01-29T21:42:57.543Z,-2.00
2019-01-29T21:45:24.507Z,-2.00
2019-01-29T21:47:51.099Z,-2.00
2019-01-29T21:50:18.616Z,-2.00
2019-01-29T21:52:45.535Z,-2.10
2019-01-29T21:55:12.148Z,-2.10
2019-01-29T21:57:38.872Z,-2.10
2019-01-29T22:00:07.424Z,-2.10
2019-01-29T22:02:33.899Z,-2.20
2019-01-29T22:05:00.347Z,-2.20
2019-01-29T22:07:26.832Z,-2.20
2019-01-29T22:09:53.280Z,-2.30
2019-01-29T22:12:19.752Z,-2.30
2019-01-29T22:14:46.459Z,-2.40
2019-01-29T22:17:13.017Z,-2.40
2019-01-29T22:19:39.473Z,-2.40
2019-01-29T22:22:06.199Z,-2.50
2019-01-29T22:24:32.903Z,-2.50
2019-01-29T22:26:59.616Z,-2.50
2019-01-29T22:29:26.082Z,-2.50
2019-01-29T22:31:52.631Z,-2.40
2019-01-29T22:34:19.337Z,-2.50
2019-01-29T22:36:46.055Z,-2.40
2019-01-29T22:39:12.736Z,-2.40
2019-01-29T22:41:39.480Z,-2.40
2019-01-29T22:44:06.208Z,-2.40
2019-01-29T22:46:32.926Z,-2.50
2019-01-29T22:48:59.632Z,-2.50
2019-01-29T22:51:26.096Z,-2.50
2019-01-29T22:53:52.540Z,-2.70
2019-01-29T22:56:19.251Z,-2.80
2019-01-29T22:58:45.703Z,-2.90
2019-01-29T23:01:18.641Z,-3.00
2019-01-29T23:03:47.183Z,-3.10
2019-01-29T23:06:21.928Z,-3.00
2019-01-29T23:08:48.378Z,-2.90
2019-01-29T23:11:14.848Z,-2.80
2019-01-29T23:13:41.305Z,-2.80
2019-01-29T23:16:07.776Z,-2.80
2019-01-29T23:18:34.467Z,-2.80
2019-01-29T23:21:01.179Z,-2.70
2019-01-29T23:23:27.628Z,-2.70
2019-01-29T23:25:54.341Z,-2.70
2019-01-29T23:28:20.804Z,-2.70
2019-01-29T23:30:47.271Z,-2.70
2019-01-29T23:33:13.740Z,-2.70
2019-01-29T23:35:40.439Z,-2.70
2019-01-29T23:38:07.160Z,-2.70
2019-01-29T23:40:33.851Z,-2.80
2019-01-29T23:43:00.316Z,-2.70
2019-01-29T23:45:26.763Z,-2.70
2019-01-29T23:48:02.283Z,-2.70
2019-01-29T23:50:29.239Z,-2.60
2019-01-29T23:52:55.710Z,-2.70
2019-01-29T23:55:22.400Z,-2.70
2019-01-29T23:57:48.876Z,-2.60
